createdAt,value
2023-01-25T00:01:09.316Z,3.65
2023-01-25T00:03:11.046Z,3.63
2023-01-25T00:05:12.790Z,3.17
2023-01-25T00:07:14.598Z,3.20
2023-01-25T00:09:17.069Z,3.45
2023-01-25T00:11:19.846Z,3.42
2023-01-25T00:13:21.497Z,3.55
2023-01-25T00:15:23.804Z,3.08
2023-01-25T00:17:26.560Z,3.65
2023-01-25T00:19:28.231Z,3.30
2023-01-25T00:21:29.926Z,3.45
2023-01-25T00:23:34.661Z,3.78
2023-01-25T00:25:36.272Z,3.45
2023-01-25T00:27:37.901Z,3.42
2023-01-25T00:29:39.616Z,3.40
2023-01-25T00:31:48.991Z,3.55
2023-01-25T00:34:06.009Z,3.65
2023-01-25T00:36:36.600Z,3.42
2023-01-25T00:38:38.677Z,3.25
2023-01-25T00:40:40.252Z,3.35
2023-01-25T00:42:42.130Z,3.60
2023-01-25T00:44:44.195Z,3.60
2023-01-25T00:46:45.925Z,3.30
2023-01-25T00:48:47.636Z,3.70
2023-01-25T00:50:49.245Z,3.28
2023-01-25T00:52:50.919Z,3.63
2023-01-25T00:54:52.513Z,3.30
2023-01-25T00:56:56.214Z,3.33
2023-01-25T00:58:57.874Z,3.67
2023-01-25T01:00:59.682Z,3.38
2023-01-25T01:03:01.350Z,3.25
2023-01-25T01:05:03.121Z,3.53
2023-01-25T01:07:04.841Z,3.40
2023-01-25T01:09:11.184Z,3.28
2023-01-25T01:11:13.380Z,3.33
2023-01-25T01:13:15.020Z,3.38
2023-01-25T01:15:16.797Z,3.58
2023-01-25T01:17:18.406Z,3.35
2023-01-25T01:19:20.074Z,3.25
2023-01-25T01:21:22.043Z,3.45
2023-01-25T01:23:23.728Z,3.28
2023-01-25T01:25:25.374Z,3.58
2023-01-25T01:27:26.995Z,3.45
2023-01-25T01:29:28.597Z,3.05
2023-01-25T01:31:30.424Z,3.17
2023-01-25T01:33:33.990Z,3.05
2023-01-25T01:35:36.872Z,3.60
2023-01-25T01:37:42.528Z,3.33
2023-01-25T01:39:44.195Z,3.42
2023-01-25T01:41:45.937Z,3.28
2023-01-25T01:43:48.100Z,3.75
2023-01-25T01:45:52.138Z,3.58
2023-01-25T01:47:53.876Z,3.05
2023-01-25T01:50:20.520Z,3.70
2023-01-25T01:52:28.630Z,3.22
2023-01-25T01:54:46.053Z,3.55
2023-01-25T01:57:14.361Z,3.00
2023-01-25T01:59:16.419Z,3.55
2023-01-25T02:01:20.200Z,3.13
2023-01-25T02:03:22.844Z,3.33
2023-01-25T02:05:40.722Z,3.72
2023-01-25T02:07:43.444Z,3.35
2023-01-25T02:09:45.445Z,3.20
2023-01-25T02:11:47.891Z,3.17
2023-01-25T02:13:50.161Z,3.45
2023-01-25T02:15:53.531Z,3.13
2023-01-25T02:17:55.279Z,3.50
2023-01-25T02:20:14.781Z,3.15
2023-01-25T02:22:22.924Z,3.42
2023-01-25T02:24:29.523Z,3.15
2023-01-25T02:26:31.398Z,3.58
2023-01-25T02:29:06.059Z,3.53
2023-01-25T02:31:07.934Z,3.70
2023-01-25T02:33:09.963Z,3.08
2023-01-25T02:35:48.157Z,3.15
2023-01-25T02:37:51.138Z,3.47
2023-01-25T02:39:53.060Z,2.80
2023-01-25T02:41:55.028Z,3.22
2023-01-25T02:43:56.682Z,3.10
2023-01-25T02:46:10.751Z,3.25
2023-01-25T02:48:12.485Z,3.53
2023-01-25T02:50:15.823Z,3.42
2023-01-25T02:52:17.640Z,3.10
2023-01-25T02:54:20.844Z,3.65
2023-01-25T02:56:23.700Z,3.30
2023-01-25T02:58:25.372Z,3.15
2023-01-25T03:00:27.048Z,3.65
2023-01-25T03:02:28.818Z,3.45
2023-01-25T03:04:30.544Z,3.13
2023-01-25T03:06:32.848Z,3.25
2023-01-25T03:08:35.570Z,2.90
2023-01-25T03:10:37.238Z,3.20
2023-01-25T03:12:39.081Z,3.10
2023-01-25T03:14:40.784Z,3.55
2023-01-25T03:16:42.486Z,3.00
2023-01-25T03:18:44.167Z,2.85
2023-01-25T03:20:45.831Z,3.00
2023-01-25T03:22:47.424Z,3.25
2023-01-25T03:24:49.032Z,3.15
2023-01-25T03:27:09.657Z,3.20
2023-01-25T03:29:11.301Z,3.30
2023-01-25T03:31:15.886Z,3.33
2023-01-25T03:33:17.532Z,3.13
2023-01-25T03:35:19.467Z,3.05
2023-01-25T03:37:21.180Z,2.90
2023-01-25T03:39:22.819Z,3.30
2023-01-25T03:41:24.626Z,3.28
2023-01-25T03:43:26.803Z,2.88
2023-01-25T03:45:28.396Z,3.20
2023-01-25T03:47:30.045Z,3.58
2023-01-25T03:49:31.699Z,3.10
2023-01-25T03:51:34.043Z,3.05
2023-01-25T03:53:35.779Z,3.35
2023-01-25T03:55:37.396Z,3.08
2023-01-25T03:57:39.516Z,3.10
2023-01-25T03:59:41.142Z,3.05
2023-01-25T04:01:42.777Z,3.10
2023-01-25T04:03:44.477Z,2.90
2023-01-25T04:05:46.689Z,3.03
2023-01-25T04:07:48.385Z,3.20
2023-01-25T04:09:51.270Z,3.03
2023-01-25T04:11:52.913Z,3.10
2023-01-25T04:13:54.724Z,3.38
2023-01-25T04:15:56.385Z,3.30
2023-01-25T04:17:58.061Z,3.15
2023-01-25T04:19:59.680Z,3.15
2023-01-25T04:22:01.323Z,3.33
2023-01-25T04:24:03.115Z,3.00
2023-01-25T04:26:07.435Z,3.15
2023-01-25T04:28:09.093Z,2.97
2023-01-25T04:30:11.265Z,3.20
2023-01-25T04:32:12.989Z,2.67
2023-01-25T04:34:14.700Z,2.92
2023-01-25T04:36:16.329Z,2.67
2023-01-25T04:38:18.017Z,2.58
2023-01-25T04:40:19.625Z,2.72
2023-01-25T04:42:21.272Z,3.03
2023-01-25T04:44:22.947Z,2.90
2023-01-25T04:46:24.628Z,3.40
2023-01-25T04:48:26.312Z,2.78
2023-01-25T04:50:28.075Z,2.65
2023-01-25T04:52:29.677Z,3.08
2023-01-25T04:54:31.329Z,3.38
2023-01-25T04:56:33.249Z,2.72
2023-01-25T04:58:34.841Z,2.60
2023-01-25T05:00:36.449Z,2.95
2023-01-25T05:02:39.545Z,2.67
2023-01-25T05:04:41.428Z,2.72
2023-01-25T05:06:43.083Z,3.35
2023-01-25T05:08:44.740Z,2.67
2023-01-25T05:10:46.362Z,2.80
2023-01-25T05:12:47.980Z,3.10
2023-01-25T05:14:49.606Z,5.00
2023-01-25T05:16:51.362Z,3.97
2023-01-25T05:18:55.441Z,3.60
2023-01-25T05:20:57.083Z,3.25
2023-01-25T05:22:58.723Z,2.90
2023-01-25T05:25:01.874Z,3.40
2023-01-25T05:27:04.110Z,3.22
2023-01-25T05:29:05.863Z,2.60
2023-01-25T05:31:07.603Z,3.38
2023-01-25T05:33:09.285Z,3.00
2023-01-25T05:35:11.176Z,2.67
2023-01-25T05:37:15.454Z,2.63
2023-01-25T05:39:17.248Z,2.75
2023-01-25T05:41:19.040Z,2.78
2023-01-25T05:43:20.844Z,2.67
2023-01-25T05:45:22.580Z,2.83
2023-01-25T05:47:24.172Z,3.10
2023-01-25T05:49:25.789Z,3.00
2023-01-25T05:51:27.432Z,2.95
2023-01-25T05:53:29.172Z,3.03
2023-01-25T05:55:30.824Z,2.97
2023-01-25T05:57:32.419Z,2.72
2023-01-25T05:59:34.076Z,3.45
2023-01-25T06:01:35.748Z,2.95
2023-01-25T06:03:37.511Z,2.95
2023-01-25T06:05:39.190Z,3.00
2023-01-25T06:07:40.876Z,3.10
2023-01-25T06:09:42.497Z,3.15
2023-01-25T06:11:45.215Z,3.15
2023-01-25T06:13:47.369Z,3.35
2023-01-25T06:15:53.985Z,2.67
2023-01-25T06:17:56.485Z,2.97
2023-01-25T06:19:58.132Z,3.22
2023-01-25T06:21:59.776Z,3.20
2023-01-25T06:24:01.549Z,2.75
2023-01-25T06:26:09.158Z,2.60
2023-01-25T06:28:10.851Z,2.90
2023-01-25T06:30:12.850Z,3.25
2023-01-25T06:32:14.486Z,3.30
2023-01-25T06:34:16.968Z,3.47
2023-01-25T06:36:19.843Z,2.83
2023-01-25T06:38:24.549Z,3.30
2023-01-25T06:40:26.995Z,3.20
2023-01-25T06:42:28.694Z,3.20
2023-01-25T06:44:30.350Z,3.33
2023-01-25T06:46:32.887Z,3.22
2023-01-25T06:48:34.988Z,3.45
2023-01-25T06:50:36.644Z,3.55
2023-01-25T06:52:38.447Z,3.03
2023-01-25T06:54:40.336Z,3.35
2023-01-25T06:56:42.002Z,3.83
2023-01-25T06:58:44.257Z,3.13
2023-01-25T07:00:46.022Z,3.35
2023-01-25T07:02:47.746Z,3.17
2023-01-25T07:04:49.480Z,3.60
2023-01-25T07:06:51.241Z,3.35
2023-01-25T07:08:53.170Z,3.28
2023-01-25T07:11:00.557Z,2.80
2023-01-25T07:13:02.217Z,3.50
2023-01-25T07:15:04.117Z,3.42
2023-01-25T07:17:05.733Z,2.95
2023-01-25T07:19:10.343Z,3.47
2023-01-25T07:21:15.089Z,3.10
2023-01-25T07:23:16.793Z,3.22
2023-01-25T07:25:18.459Z,3.47
2023-01-25T07:27:20.077Z,4.15
2023-01-25T07:29:21.784Z,3.05
2023-01-25T07:31:24.215Z,3.50
2023-01-25T07:33:25.871Z,3.13
2023-01-25T07:35:27.513Z,3.15
2023-01-25T07:37:29.350Z,2.72
2023-01-25T07:39:30.959Z,3.22
2023-01-25T07:41:32.763Z,3.10
2023-01-25T07:43:34.421Z,3.30
2023-01-25T07:45:36.059Z,2.97
2023-01-25T07:47:38.014Z,3.40
2023-01-25T07:49:39.707Z,3.03
2023-01-25T07:51:41.407Z,2.67
2023-01-25T07:53:43.730Z,2.58
2023-01-25T07:55:45.366Z,2.88
2023-01-25T07:57:47.144Z,3.08
2023-01-25T07:59:49.791Z,2.80
2023-01-25T08:01:51.449Z,2.85
2023-01-25T08:03:55.607Z,3.08
2023-01-25T08:05:57.357Z,3.03
2023-01-25T08:07:58.987Z,3.00
2023-01-25T08:10:00.682Z,2.88
2023-01-25T08:12:02.692Z,3.00
2023-01-25T08:14:04.488Z,2.60
2023-01-25T08:16:06.405Z,2.88
2023-01-25T08:18:08.004Z,2.92
2023-01-25T08:20:10.292Z,2.88
2023-01-25T08:22:13.558Z,2.63
2023-01-25T08:24:16.661Z,3.40
2023-01-25T08:26:19.072Z,3.08
2023-01-25T08:28:20.729Z,3.28
2023-01-25T08:30:22.433Z,3.28
2023-01-25T08:32:24.223Z,3.60
2023-01-25T08:34:25.912Z,2.63
2023-01-25T08:36:28.189Z,2.97
2023-01-25T08:38:30.000Z,3.50
2023-01-25T08:40:31.620Z,2.70
2023-01-25T08:42:33.384Z,3.28
2023-01-25T08:44:35.043Z,2.78
2023-01-25T08:46:36.689Z,3.00
2023-01-25T08:48:38.582Z,3.45
2023-01-25T08:50:40.223Z,3.25
2023-01-25T08:52:41.853Z,2.80
2023-01-25T08:54:44.371Z,3.00
2023-01-25T08:56:46.061Z,2.83
2023-01-25T08:58:50.033Z,2.97
2023-01-25T09:00:51.710Z,3.03
2023-01-25T09:02:53.346Z,3.03
2023-01-25T09:04:55.008Z,3.47
2023-01-25T09:06:56.670Z,3.33
2023-01-25T09:09:00.325Z,3.15
2023-01-25T09:11:03.545Z,3.20
2023-01-25T09:13:07.676Z,3.05
2023-01-25T09:15:10.727Z,3.33
2023-01-25T09:17:12.563Z,3.33
2023-01-25T09:19:14.560Z,3.88
2023-01-25T09:21:18.116Z,3.40
2023-01-25T09:23:22.804Z,3.38
2023-01-25T09:25:24.431Z,3.63
2023-01-25T09:27:26.092Z,3.15
2023-01-25T09:29:27.779Z,3.33
2023-01-25T09:31:30.390Z,3.38
2023-01-25T09:33:35.556Z,3.47
2023-01-25T09:35:37.165Z,4.03
2023-01-25T09:37:38.995Z,3.47
2023-01-25T09:39:40.620Z,3.30
2023-01-25T09:42:14.617Z,2.88
2023-01-25T09:44:20.013Z,3.30
2023-01-25T09:46:41.287Z,3.10
2023-01-25T09:51:04.174Z,3.55
2023-01-25T09:53:39.203Z,3.40
2023-01-25T09:55:42.111Z,3.47
2023-01-25T09:57:46.545Z,3.53
2023-01-25T09:59:51.409Z,3.40
2023-01-25T10:01:55.496Z,4.20
2023-01-25T10:04:05.647Z,3.83
2023-01-25T10:06:12.996Z,3.50
2023-01-25T10:08:27.398Z,3.45
2023-01-25T10:10:44.052Z,3.53
2023-01-25T10:12:45.747Z,3.80
2023-01-25T10:14:48.699Z,3.90
2023-01-25T10:17:09.444Z,3.92
2023-01-25T10:19:32.179Z,3.63
2023-01-25T10:22:12.584Z,3.55
2023-01-25T10:24:46.796Z,3.33
2023-01-25T10:27:03.592Z,3.70
2023-01-25T10:29:16.659Z,3.45
2023-01-25T10:31:28.423Z,3.50
2023-01-25T10:33:35.139Z,3.50
2023-01-25T10:35:45.750Z,3.55
2023-01-25T10:37:49.657Z,3.72
2023-01-25T10:40:04.076Z,4.13
2023-01-25T10:42:13.168Z,3.22
2023-01-25T10:44:27.911Z,3.53
2023-01-25T10:46:30.687Z,3.45
2023-01-25T10:48:37.486Z,3.88
2023-01-25T10:50:41.028Z,3.50
2023-01-25T10:52:57.933Z,3.30
2023-01-25T10:55:08.370Z,3.55
2023-01-25T10:57:17.267Z,4.38
2023-01-25T10:59:27.396Z,3.50
2023-01-25T11:01:32.349Z,3.70
2023-01-25T11:03:39.912Z,3.67
2023-01-25T11:05:43.133Z,3.63
2023-01-25T11:07:46.119Z,3.65
2023-01-25T11:09:47.811Z,3.65
2023-01-25T11:12:04.060Z,3.65
2023-01-25T11:14:32.386Z,3.83
2023-01-25T11:16:38.647Z,3.47
2023-01-25T11:18:51.372Z,3.30
2023-01-25T11:21:18.595Z,3.75
2023-01-25T11:23:26.417Z,3.67
2023-01-25T11:25:33.263Z,3.60
2023-01-25T11:27:34.919Z,3.63
2023-01-25T11:29:36.542Z,3.92
2023-01-25T11:31:41.878Z,3.70
2023-01-25T11:33:43.616Z,3.88
2023-01-25T11:36:25.564Z,3.40
2023-01-25T11:38:27.510Z,3.45
2023-01-25T11:41:07.527Z,3.78
2023-01-25T11:43:40.150Z,3.58
2023-01-25T11:46:03.042Z,3.75
2023-01-25T11:48:24.139Z,3.47
2023-01-25T11:50:57.585Z,3.72
2023-01-25T11:53:21.781Z,3.42
2023-01-25T11:55:42.409Z,3.40
2023-01-25T11:58:24.432Z,3.78
2023-01-25T12:00:49.377Z,4.10
2023-01-25T12:03:19.939Z,4.00
2023-01-25T12:05:47.668Z,3.95
2023-01-25T12:08:05.462Z,3.60
2023-01-25T12:10:20.755Z,4.00
2023-01-25T12:12:48.694Z,3.72
2023-01-25T12:15:07.563Z,3.58
2023-01-25T12:17:24.938Z,3.50
2023-01-25T12:20:00.543Z,3.78
2023-01-25T12:22:12.585Z,3.88
2023-01-25T12:24:34.471Z,3.72
2023-01-25T12:26:51.571Z,4.10
2023-01-25T12:29:20.967Z,3.83
2023-01-25T12:31:29.032Z,4.10
2023-01-25T12:33:40.141Z,3.72
2023-01-25T12:35:57.731Z,3.90
2023-01-25T12:38:04.812Z,3.97
2023-01-25T12:40:17.635Z,4.13
2023-01-25T12:42:24.563Z,3.58
2023-01-25T12:44:47.710Z,4.25
2023-01-25T12:47:23.052Z,3.65
2023-01-25T12:49:36.666Z,3.58
2023-01-25T12:51:41.624Z,4.10
2023-01-25T12:53:49.165Z,4.05
2023-01-25T12:55:52.321Z,4.35
2023-01-25T12:58:01.862Z,3.95
2023-01-25T13:00:21.661Z,4.40
2023-01-25T13:02:26.286Z,3.72
2023-01-25T13:04:58.658Z,3.80
2023-01-25T13:07:29.234Z,4.18
2023-01-25T13:10:04.982Z,4.05
2023-01-25T13:12:11.994Z,4.07
2023-01-25T13:14:16.318Z,3.97
2023-01-25T13:16:32.412Z,4.00
2023-01-25T13:18:35.751Z,3.55
2023-01-25T13:20:40.483Z,3.83
2023-01-25T13:22:44.967Z,4.30
2023-01-25T13:25:10.556Z,3.90
2023-01-25T13:27:38.493Z,4.18
2023-01-25T13:29:40.209Z,4.07
2023-01-25T13:31:52.021Z,3.90
2023-01-25T13:33:54.279Z,3.67
2023-01-25T13:35:55.959Z,3.72
2023-01-25T13:37:59.097Z,4.35
2023-01-25T13:40:07.163Z,3.95
2023-01-25T13:42:08.974Z,4.15
2023-01-25T13:44:28.162Z,3.80
2023-01-25T13:46:29.862Z,4.25
2023-01-25T13:48:34.073Z,3.85
2023-01-25T13:50:45.062Z,4.25
2023-01-25T13:53:16.916Z,4.38
2023-01-25T13:55:18.994Z,4.60
2023-01-25T13:57:24.143Z,4.43
2023-01-25T13:59:27.995Z,4.10
2023-01-25T14:01:32.119Z,4.20
2023-01-25T14:03:43.682Z,4.40
2023-01-25T14:05:54.399Z,4.57
2023-01-25T14:07:57.146Z,4.53
2023-01-25T14:10:02.249Z,4.05
2023-01-25T14:12:08.287Z,4.78
2023-01-25T14:14:17.582Z,4.65
2023-01-25T14:16:19.270Z,4.55
2023-01-25T14:18:22.461Z,4.80
2023-01-25T14:20:24.425Z,4.50
2023-01-25T14:22:28.486Z,4.43
2023-01-25T14:24:30.798Z,4.60
2023-01-25T14:26:33.638Z,4.57
2023-01-25T14:28:35.324Z,4.80
2023-01-25T14:30:37.157Z,4.40
2023-01-25T14:32:41.734Z,4.40
2023-01-25T14:34:43.407Z,4.43
2023-01-25T14:36:45.138Z,4.47
2023-01-25T14:38:46.977Z,4.43
2023-01-25T14:40:50.389Z,4.93
2023-01-25T14:42:53.943Z,4.80
2023-01-25T14:44:55.659Z,4.32
2023-01-25T14:47:28.423Z,5.15
2023-01-25T14:49:30.122Z,4.30
2023-01-25T14:51:32.618Z,4.72
2023-01-25T14:53:34.306Z,4.28
2023-01-25T14:55:36.898Z,4.88
2023-01-25T14:57:40.597Z,4.60
2023-01-25T14:59:47.738Z,5.40
2023-01-25T15:01:52.274Z,5.20
2023-01-25T15:03:54.066Z,4.82
2023-01-25T15:06:00.600Z,5.00
2023-01-25T15:08:08.448Z,5.03
2023-01-25T15:10:25.569Z,5.38
2023-01-25T15:12:30.231Z,5.20
2023-01-25T15:14:32.162Z,5.95
2023-01-25T15:16:34.562Z,5.82
2023-01-25T15:18:52.998Z,5.72
2023-01-25T15:20:54.653Z,5.43
2023-01-25T15:22:58.980Z,5.88
2023-01-25T15:25:00.697Z,5.72
2023-01-25T15:27:03.412Z,5.85
2023-01-25T15:29:27.532Z,6.20
2023-01-25T15:31:32.599Z,6.57
2023-01-25T15:33:34.653Z,6.38
2023-01-25T15:35:36.259Z,6.47
2023-01-25T15:37:37.933Z,6.47
2023-01-25T15:39:39.553Z,5.93
2023-01-25T15:41:41.769Z,6.05
2023-01-25T15:43:43.642Z,5.72
2023-01-25T15:45:48.652Z,6.55
2023-01-25T15:47:50.366Z,5.82
2023-01-25T15:49:53.759Z,6.18
2023-01-25T15:51:55.837Z,6.00
2023-01-25T15:53:57.459Z,6.60
2023-01-25T15:56:03.314Z,6.05
2023-01-25T15:58:05.153Z,6.38
2023-01-25T16:00:14.882Z,6.40
2023-01-25T16:02:16.607Z,18.77
2023-01-25T16:04:18.335Z,21.65
2023-01-25T16:06:35.888Z,12.98
2023-01-25T16:08:37.543Z,11.02
2023-01-25T16:10:39.173Z,9.40
2023-01-25T16:12:40.857Z,9.05
2023-01-25T16:14:42.698Z,9.98
2023-01-25T16:16:46.589Z,9.35
2023-01-25T16:18:48.873Z,9.68
2023-01-25T16:20:50.559Z,8.93
2023-01-25T16:22:52.328Z,9.60
2023-01-25T16:24:54.000Z,9.10
2023-01-25T16:26:58.451Z,9.02
2023-01-25T16:29:00.057Z,9.05
2023-01-25T16:31:01.863Z,8.40
2023-01-25T16:33:03.704Z,9.02
2023-01-25T16:35:05.843Z,9.60
2023-01-25T16:37:07.513Z,8.75
2023-01-25T16:39:21.111Z,8.88
2023-01-25T16:41:22.809Z,8.73
2023-01-25T16:43:29.000Z,8.60
2023-01-25T16:45:33.612Z,8.27
2023-01-25T16:47:35.217Z,9.07
2023-01-25T16:49:36.842Z,8.88
2023-01-25T16:51:38.544Z,9.05
2023-01-25T16:53:40.148Z,8.43
2023-01-25T16:55:41.975Z,8.32
2023-01-25T16:57:48.478Z,8.50
2023-01-25T16:59:50.140Z,7.97
2023-01-25T17:01:52.112Z,8.52
2023-01-25T17:03:55.323Z,7.82
2023-01-25T17:05:56.960Z,7.80
2023-01-25T17:07:58.656Z,7.47
2023-01-25T17:10:00.881Z,8.18
2023-01-25T17:12:02.591Z,8.65
2023-01-25T17:14:04.955Z,7.95
2023-01-25T17:16:07.469Z,7.63
2023-01-25T17:18:09.109Z,7.90
2023-01-25T17:20:11.773Z,8.20
2023-01-25T17:22:13.538Z,7.97
2023-01-25T17:24:18.067Z,7.60
2023-01-25T17:26:21.382Z,6.80
2023-01-25T17:28:23.976Z,6.47
2023-01-25T17:30:27.969Z,6.90
2023-01-25T17:32:29.639Z,6.88
2023-01-25T17:34:31.245Z,6.95
2023-01-25T17:36:32.917Z,6.68
2023-01-25T17:38:34.862Z,6.85
2023-01-25T17:40:36.943Z,6.80
2023-01-25T17:42:38.563Z,6.82
2023-01-25T17:44:40.180Z,6.38
2023-01-25T17:46:41.870Z,6.00
2023-01-25T17:48:44.795Z,7.75
2023-01-25T17:50:46.492Z,6.75
2023-01-25T17:52:48.553Z,7.85
2023-01-25T17:54:50.200Z,6.40
2023-01-25T17:56:51.933Z,6.65
2023-01-25T17:58:53.756Z,6.18
2023-01-25T18:01:05.132Z,6.30
2023-01-25T18:03:14.344Z,6.38
2023-01-25T18:05:16.323Z,5.85
2023-01-25T18:07:17.953Z,6.18
2023-01-25T18:09:19.604Z,6.35
2023-01-25T18:11:26.174Z,6.22
2023-01-25T18:13:27.854Z,6.40
2023-01-25T18:15:29.498Z,6.30
2023-01-25T18:17:35.558Z,6.07
2023-01-25T18:19:37.757Z,6.88
2023-01-25T18:21:41.878Z,5.50
2023-01-25T18:23:46.900Z,5.97
2023-01-25T18:25:48.607Z,5.18
2023-01-25T18:27:50.292Z,5.80
2023-01-25T18:29:58.207Z,5.30
2023-01-25T18:32:00.721Z,5.68
2023-01-25T18:34:02.594Z,6.10
2023-01-25T18:36:05.428Z,5.40
2023-01-25T18:38:08.344Z,5.35
2023-01-25T18:40:11.580Z,5.80
2023-01-25T18:42:13.676Z,5.28
2023-01-25T18:44:15.280Z,5.22
2023-01-25T18:46:17.015Z,5.20
2023-01-25T18:48:20.140Z,5.70
2023-01-25T18:50:21.932Z,5.28
2023-01-25T18:52:24.247Z,5.18
2023-01-25T18:54:25.948Z,5.28
2023-01-25T18:56:27.917Z,5.45
2023-01-25T18:58:31.587Z,5.00
2023-01-25T19:00:34.844Z,5.22
2023-01-25T19:02:36.862Z,5.70
2023-01-25T19:04:38.652Z,5.32
2023-01-25T19:06:40.967Z,5.63
2023-01-25T19:08:44.381Z,5.03
2023-01-25T19:10:46.062Z,4.90
2023-01-25T19:12:47.741Z,5.32
2023-01-25T19:14:49.391Z,4.78
2023-01-25T19:16:51.276Z,4.97
2023-01-25T19:18:54.942Z,4.93
2023-01-25T19:20:56.912Z,4.47
2023-01-25T19:22:58.558Z,4.32
2023-01-25T19:25:00.254Z,4.70
2023-01-25T19:27:02.446Z,5.22
2023-01-25T19:29:04.581Z,4.53
2023-01-25T19:31:11.604Z,4.47
2023-01-25T19:33:13.361Z,4.40
2023-01-25T19:35:15.105Z,4.07
2023-01-25T19:37:16.876Z,4.30
2023-01-25T19:39:19.911Z,4.60
2023-01-25T19:41:24.232Z,4.32
2023-01-25T19:43:25.880Z,4.25
2023-01-25T19:45:27.575Z,3.92
2023-01-25T19:47:29.199Z,4.13
2023-01-25T19:49:30.827Z,4.45
2023-01-25T19:51:35.180Z,4.60
2023-01-25T19:53:37.141Z,4.38
2023-01-25T19:55:38.744Z,4.45
2023-01-25T19:57:40.386Z,4.68
2023-01-25T19:59:42.016Z,4.60
2023-01-25T20:01:45.088Z,4.18
2023-01-25T20:03:47.392Z,3.75
2023-01-25T20:05:58.623Z,3.92
2023-01-25T20:08:00.286Z,4.43
2023-01-25T20:10:02.034Z,4.25
2023-01-25T20:12:07.812Z,4.05
2023-01-25T20:14:12.614Z,3.55
2023-01-25T20:16:17.185Z,3.90
2023-01-25T20:18:19.616Z,4.50
2023-01-25T20:20:21.262Z,3.90
2023-01-25T20:22:22.879Z,4.00
2023-01-25T20:24:24.581Z,4.13
2023-01-25T20:26:32.473Z,5.30
2023-01-25T20:28:35.964Z,5.55
2023-01-25T20:30:37.684Z,4.53
2023-01-25T20:32:39.356Z,5.53
2023-01-25T20:34:41.873Z,5.45
2023-01-25T20:36:44.592Z,4.90
2023-01-25T20:38:46.399Z,4.97
2023-01-25T20:40:48.043Z,4.90
2023-01-25T20:42:49.655Z,4.25
2023-01-25T20:44:51.271Z,3.97
2023-01-25T20:46:53.076Z,4.60
2023-01-25T20:48:55.292Z,4.78
2023-01-25T20:51:04.995Z,4.75
2023-01-25T20:53:06.685Z,3.97
2023-01-25T20:55:09.374Z,3.90
2023-01-25T20:57:11.301Z,3.83
2023-01-25T20:59:13.157Z,4.25
2023-01-25T21:01:17.592Z,4.30
2023-01-25T21:03:19.370Z,3.85
2023-01-25T21:05:21.094Z,4.43
2023-01-25T21:07:22.708Z,4.13
2023-01-25T21:09:28.170Z,4.20
2023-01-25T21:11:30.955Z,4.35
2023-01-25T21:13:32.760Z,3.92
2023-01-25T21:15:34.473Z,4.20
2023-01-25T21:17:36.203Z,4.10
2023-01-25T21:19:37.943Z,3.95
2023-01-25T21:21:39.619Z,4.13
2023-01-25T21:23:44.710Z,3.55
2023-01-25T21:25:46.398Z,3.85
2023-01-25T21:27:49.157Z,3.92
2023-01-25T21:29:51.331Z,3.85
2023-01-25T21:31:54.400Z,4.40
2023-01-25T21:33:56.605Z,3.70
2023-01-25T21:36:01.603Z,3.63
2023-01-25T21:38:03.282Z,3.58
2023-01-25T21:40:05.342Z,3.30
2023-01-25T21:42:06.999Z,3.58
2023-01-25T21:44:28.535Z,3.65
2023-01-25T21:46:30.180Z,3.45
2023-01-25T21:48:50.389Z,3.65
2023-01-25T21:51:10.777Z,3.78
2023-01-25T21:53:12.455Z,3.10
2023-01-25T21:55:14.186Z,3.60
2023-01-25T21:57:15.921Z,3.38
2023-01-25T21:59:17.620Z,3.47
2023-01-25T22:01:20.858Z,3.20
2023-01-25T22:03:24.315Z,3.53
2023-01-25T22:05:26.040Z,3.03
2023-01-25T22:07:27.763Z,3.47
2023-01-25T22:09:29.517Z,3.70
2023-01-25T22:11:31.768Z,3.30
2023-01-25T22:13:34.181Z,3.08
2023-01-25T22:15:35.789Z,3.10
2023-01-25T22:17:37.544Z,3.20
2023-01-25T22:19:39.307Z,3.08
2023-01-25T22:21:40.958Z,3.05
2023-01-25T22:23:42.777Z,2.95
2023-01-25T22:25:44.412Z,3.20
2023-01-25T22:27:59.873Z,2.90
2023-01-25T22:30:01.496Z,3.25
2023-01-25T22:32:04.068Z,3.38
2023-01-25T22:34:05.698Z,2.83
2023-01-25T22:36:08.117Z,2.90
2023-01-25T22:38:09.702Z,2.90
2023-01-25T22:40:12.270Z,2.72
2023-01-25T22:42:14.486Z,3.00
2023-01-25T22:44:16.526Z,2.65
2023-01-25T22:46:21.416Z,2.60
2023-01-25T22:48:23.207Z,2.88
2023-01-25T22:50:24.869Z,2.88
2023-01-25T22:52:26.528Z,2.60
2023-01-25T22:54:28.139Z,2.88
2023-01-25T22:56:32.196Z,2.67
2023-01-25T22:58:35.966Z,3.00
2023-01-25T23:00:38.606Z,2.88
2023-01-25T23:02:40.313Z,2.83
2023-01-25T23:04:42.050Z,2.80
2023-01-25T23:06:43.799Z,2.58
2023-01-25T23:08:45.988Z,2.80
2023-01-25T23:10:47.638Z,2.72
2023-01-25T23:12:49.348Z,2.83
2023-01-25T23:14:54.284Z,2.58
2023-01-25T23:17:16.025Z,2.88
2023-01-25T23:19:17.825Z,2.92
2023-01-25T23:21:22.191Z,3.10
2023-01-25T23:23:23.878Z,2.50
2023-01-25T23:25:25.557Z,2.70
2023-01-25T23:27:27.296Z,2.72
2023-01-25T23:29:28.936Z,2.97
2023-01-25T23:31:30.821Z,2.75
2023-01-25T23:33:32.564Z,2.72
2023-01-25T23:35:34.169Z,2.50
2023-01-25T23:37:35.762Z,2.88
2023-01-25T23:39:37.792Z,3.42
2023-01-25T23:41:39.798Z,2.70
2023-01-25T23:43:41.839Z,2.78
2023-01-25T23:45:44.529Z,2.83
2023-01-25T23:47:46.215Z,2.65
2023-01-25T23:49:47.832Z,3.03
2023-01-25T23:51:49.585Z,3.13
2023-01-25T23:53:53.367Z,2.90
2023-01-25T23:55:57.153Z,2.53
2023-01-25T23:57:58.794Z,3.10
